Flight Track Log - Related Links

Times and Time Zones

All times are in EDT time to prevent confusion due to time zone crossing. See the EJA370 flight status page for this flight to view local times or setup timezone preferences in your user account.

Time Position Orientation Groundspeed Altitude Reporting Facility
EDT Latitude Longitude Course Direction KTS MPH feet Rate Location/Type
Thu 04:48:22 PM 40.5400 -80.2797 65° Northeast 227 261 4,500  Level Cleveland Center
Thu 04:49:22 PM 40.5647 -80.2114 65° Northeast 258 297 10,000 4,633 Climbing Cleveland Center
Thu 04:51:22 PM 40.5222 -79.9878 104° East 285 328 18,400 3,867 Climbing Cleveland Center
Thu 04:52:22 PM 40.4983 -79.8486 103° East 341 392 21,600 3,150 Climbing Cleveland Center
Thu 04:53:22 PM 40.4744 -79.7069 102° East 381 438 24,700 2,650 Climbing Cleveland Center
Thu 04:54:22 PM 40.4483 -79.5572 103° East 403 464 26,900 1,150 Climbing Cleveland Center
Thu 04:55:22 PM 40.4194 -79.3914 103° East 433 498 27,000 50 Climbing Cleveland Center
Thu 04:56:22 PM 40.3906 -79.2311 103° East 449 517 27,000  Level Cleveland Center
Thu 04:57:22 PM 40.3656 -79.0653 101° East 459 528 27,000  Level Cleveland Center
Thu 04:58:22 PM 40.3589 -78.8939 93° East 459 528 27,000  Level Cleveland Center
Thu 04:59:22 PM 40.3522 -78.7250 93° East 464 534 27,000  Level Cleveland Center
Thu 05:00:22 PM 40.3431 -78.5592 94° East 459 528 27,000 -600 Level Cleveland Center
Thu 05:02:42 PM 40.3250 -78.2122 94° East 443 510 25,000 -597 Descending New York Center
Thu 05:03:43 PM 40.3181 -78.0564 93° East 428 493 25,000  Level New York Center
Thu 05:04:43 PM 40.3108 -77.9003 93° East 428 493 25,000  Level New York Center
Thu 05:05:41 PM 40.3100 -77.7422 90° East 428 493 25,000 -807 Level New York Center
Thu 05:06:42 PM 40.3083 -77.5922 91° East 415 478 23,400 -2,049 Descending New York Center
Thu 05:07:44 PM 40.3069 -77.4342 91° East 403 464 20,800 -2,427 Descending New York Center
Thu 05:08:53 PM 40.3039 -77.2625 91° East 398 458 18,100 -1,292 Descending New York Center
Thu 05:09:54 PM 40.3022 -77.1397 91° East 388 447 18,000 -50 Descending New York Center
Thu 05:10:53 PM 40.2831 -76.9936 100° East 373 429 18,000 -50 Level New York Center
Thu 05:11:53 PM 40.2544 -76.8606 106° East 373 429 17,900 -850 Descending New York Center
Thu 05:12:53 PM 40.2236 -76.7272 107° East 385 443 16,300 -1,636 Descending New York Center
Thu 05:13:54 PM 40.1908 -76.5914 107° East 390 449 14,600 -1,686 Descending New York Center
Thu 05:14:54 PM 40.1597 -76.4583 107° East 390 449 12,900 -1,664 Descending New York Center
Thu 05:15:53 PM 40.1319 -76.3447 108° East 384 442 11,300 -1,450 Descending New York Center
Thu 05:16:54 PM 40.1131 -76.2103 100° East 374 430 10,000 -650 Descending New York Center
Thu 05:17:53 PM 40.1047 -76.0739 95° East 351 404 10,000  Level New York Center
Thu 05:18:53 PM 40.0953 -75.9619 96° East 351 404 10,000 -500 Level New York Center
Thu 05:19:53 PM 40.0864 -75.8283 95° East 341 392 9,000 -1,000 Descending New York Center
Thu 05:20:53 PM 40.0797 -75.7381 95° East 299 344 8,000 -793 Descending New York Center
Thu 05:21:54 PM 40.0742 -75.6239 94° East 283 326 7,400 -984 Descending New York Center
Thu 05:22:55 PM 40.0694 -75.5339 94° East 283 326 6,000 -694 Descending New York Center
Thu 05:23:55 PM 40.0653 -75.4278 93° East 272 313 6,000  Level New York Center
Thu 05:24:53 PM 40.0608 -75.3328 93° East 278 320 6,000  Level New York Center
Thu 05:25:12 PM 40.0667 -75.2833 81° East 285 328 6,000  Level Philadelphia TRACON
Thu 05:26:18 PM 40.0333 -75.2000 118° Southeast 225 259 6,000  Level Philadelphia TRACON
Thu 05:27:12 PM 39.9833 -75.1667 153° Southeast 233 268 6,000  Level Philadelphia TRACON
Thu 05:28:18 PM 40.0000 -75.0833 75° East 197 227 6,000  Level Philadelphia TRACON
Thu 05:29:18 PM 40.0000 -75.0167 90° East 206 237 6,000 -952 Level Philadelphia TRACON
Thu 05:30:24 PM 40.0167 -74.9333 75° East 210 242 4,000 -1,095 Descending Philadelphia TRACON
Thu 05:31:24 PM 39.9833 -74.8833 131° Southeast 176 203 3,700 -500 Descending Philadelphia TRACON
Thu 05:32:24 PM 39.9500 -74.9333 229° Southwest 162 186 3,000 -850 Descending Philadelphia TRACON
Thu 05:33:24 PM 39.9333 -74.9833 247° West 175 201 2,000 -526 Descending Philadelphia TRACON
Thu 05:34:18 PM 39.9167 -75.0500 252° West 167 192 2,000 -52 Level Philadelphia TRACON
Thu 05:35:19 PM 39.9167 -75.1000 270° West 163 188 1,900 -450 Descending Philadelphia TRACON
Thu 05:36:18 PM 39.9000 -75.1500 247° West 152 175 1,100 -756 Descending Philadelphia TRACON
Thu 05:37:18 PM 39.8833 -75.2000 247° West 107 123 400 -700 Descending Philadelphia TRACON
Thu 05:39:00 PM 39.8667 -75.2333 247° West  Level FlightAware Approximate
Thu 05:46:00 PM 39.8722 -75.2409 247° West  Level Estimated

Login

Don't have an account? Register now (free) for customized features, flight alerts, and more!